Twin Falls, ID

10:45 PM MDT on April 01, 2020 (GMT -0600)
Joslin Field-Magic Valley Regional | | Change Station

Elev 4150 ft 42.48 °N, 114.49 °W | Updated 1 hour ago

Clear
Clear
31 °F
Feels Like 19 °F
N
20
Wind Variable Wind from West

Today
High -- | Low -- °F
--% Chance of Precip.
Yesterday
High -- | Low -- °F
Precip. -- in
Pressure 29.87 in
Visibility 10.0 miles
Clouds Clear
Windchill 19 °F
Dew Point 22 °F
Humidity 69%
Rainfall 0.00 in
Snow Depth Not available.
7:19 AM 8:04 PM
First Quarter, 58% visible
METAR KTWF 020253Z 27017KT 10SM CLR M01/M06 A2986 RMK AO2 SLP115 60000 T10061056 53006
Pressure 29.87 in
Visibility 10.0 miles
Clouds Clear
Windchill 19 °F
Dew Point 22 °F
Humidity 69%
Rainfall 0.00 in
Snow Depth Not available.
7:19 AM 8:04 PM
First Quarter, 58% visible
METAR KTWF 020253Z 27017KT 10SM CLR M01/M06 A2986 RMK AO2 SLP115 60000 T10061056 53006

Get Severe Weather Alerts

Thanks for signing up!

Be on the lookout for a verification email in your inbox.

You'll start receiving the daily forecast at 6 AM.

×

10-Day Weather Forecast

Almanac

Astronomy

Apr. 01, 2020 Rise Set
Actual Time
Civil Twilight
Nautical Twilight
Astronomical Twilight
Moon
Length of Visible Light
Length of Day
Tomorrow will be .
, % of the Moon is Illuminated

Today's Extremes

State Highs State Lows

Community

WunderPhotos

Category 6

Welcome to Category 6. This is the collective home for Weather Underground's featured writeups by Dr. Jeff Masters (right), Bob Henson (left), Chris Burt, and other regular contributors.

Nearby

Air Quality

  Air Quality AQ Index Pollutant
Not available.

Snow Depth

Station Depth Elevation

Earthquake Activity

City Distance Mag. Time & Date
Minimum magnitude displayed is 2.5.

Coastal Water Temperatures

Place Temperature

Stations

Nearby Weather Stations

Station Location Temp. Windchill Dew Point Humidity Wind Precip. Elev Updated Type
                   

Watches & Warnings

There are currently no watches in effect.